createdAt,value
2023-03-08T00:01:13.433Z,16.08
2023-03-08T00:03:45.454Z,16.52
2023-03-08T00:06:17.238Z,17.85
2023-03-08T00:08:49.563Z,18.27
2023-03-08T00:11:21.717Z,19.65
2023-03-08T00:13:53.907Z,15.73
2023-03-08T00:16:27.328Z,15.35
2023-03-08T00:18:59.111Z,15.95
2023-03-08T00:21:30.840Z,16.70
2023-03-08T00:24:02.549Z,16.80
2023-03-08T00:26:34.309Z,15.32
2023-03-08T00:29:06.627Z,17.55
2023-03-08T00:31:39.798Z,15.63
2023-03-08T00:34:11.548Z,17.20
2023-03-08T00:36:45.698Z,15.15
2023-03-08T00:39:17.626Z,18.83
2023-03-08T00:41:49.317Z,16.88
2023-03-08T00:44:21.132Z,16.75
2023-03-08T00:46:54.971Z,18.02
2023-03-08T00:49:26.899Z,17.80
2023-03-08T00:51:58.600Z,18.65
2023-03-08T00:54:30.315Z,16.98
2023-03-08T00:57:02.005Z,17.70
2023-03-08T00:59:33.735Z,18.70
2023-03-08T01:02:07.012Z,18.70
2023-03-08T01:04:38.697Z,17.58
2023-03-08T01:07:10.486Z,17.95
2023-03-08T01:09:43.417Z,16.38
2023-03-08T01:12:15.147Z,16.20
2023-03-08T01:14:46.825Z,19.30
2023-03-08T01:17:19.974Z,16.83
2023-03-08T01:19:51.716Z,16.60
2023-03-08T01:22:23.451Z,15.45
2023-03-08T01:24:55.181Z,14.77
2023-03-08T01:27:26.921Z,18.23
2023-03-08T01:29:58.646Z,16.02
2023-03-08T01:32:31.805Z,17.40
2023-03-08T01:35:05.452Z,13.10
2023-03-08T01:37:37.174Z,13.15
2023-03-08T01:40:09.657Z,14.75
2023-03-08T01:42:41.380Z,11.43
2023-03-08T01:45:31.464Z,11.32
2023-03-08T01:48:04.781Z,10.48
2023-03-08T01:50:56.953Z,12.65
2023-03-08T01:53:28.919Z,12.50
2023-03-08T01:56:01.019Z,10.70
2023-03-08T01:58:32.805Z,10.85
2023-03-08T02:01:04.604Z,10.43
2023-03-08T02:03:37.842Z,9.98
2023-03-08T02:06:10.830Z,9.50
2023-03-08T02:08:42.615Z,9.35
2023-03-08T02:11:15.421Z,9.77
2023-03-08T02:13:47.469Z,9.30
2023-03-08T02:16:20.381Z,9.43
2023-03-08T02:18:56.338Z,6.72
2023-03-08T02:21:28.889Z,8.90
2023-03-08T02:24:05.846Z,9.77
2023-03-08T02:26:38.166Z,9.23
2023-03-08T02:29:10.650Z,7.18
2023-03-08T02:31:42.440Z,6.20
2023-03-08T02:34:14.156Z,10.13
2023-03-08T02:36:45.832Z,13.23
2023-03-08T02:39:18.931Z,8.32
2023-03-08T02:41:51.436Z,6.47
2023-03-08T02:44:23.240Z,7.15
2023-03-08T02:46:57.204Z,7.68
2023-03-08T02:49:28.923Z,7.97
2023-03-08T02:52:01.997Z,7.45
2023-03-08T02:54:35.116Z,8.68
2023-03-08T02:57:06.861Z,7.97
2023-03-08T02:59:40.927Z,7.18
2023-03-08T03:02:12.618Z,7.22
2023-03-08T03:04:44.427Z,7.70
2023-03-08T03:07:17.046Z,7.38
2023-03-08T03:09:50.432Z,6.70
2023-03-08T03:12:23.055Z,6.80
2023-03-08T03:14:54.807Z,6.90
2023-03-08T03:17:26.621Z,6.07
2023-03-08T03:19:58.521Z,8.65
2023-03-08T03:22:30.304Z,6.70
2023-03-08T03:25:03.919Z,7.28
2023-03-08T03:27:35.709Z,7.13
2023-03-08T03:30:08.366Z,5.68
2023-03-08T03:32:40.768Z,4.97
2023-03-08T03:35:13.235Z,5.85
2023-03-08T03:37:45.881Z,5.63
2023-03-08T03:40:19.256Z,5.53
2023-03-08T03:42:54.471Z,9.15
2023-03-08T03:45:26.297Z,7.45
2023-03-08T03:47:58.837Z,8.98
2023-03-08T03:50:31.848Z,5.60
2023-03-08T03:53:08.848Z,7.13
2023-03-08T03:55:42.202Z,5.13
2023-03-08T03:58:13.965Z,5.05
2023-03-08T04:00:48.935Z,3.80
2023-03-08T04:03:31.424Z,4.35
2023-03-08T04:06:07.329Z,8.23
2023-03-08T04:08:42.422Z,6.82
2023-03-08T04:11:19.580Z,5.15
2023-03-08T04:13:51.686Z,9.40
2023-03-08T04:16:29.395Z,6.68
2023-03-08T04:19:04.537Z,6.30
2023-03-08T04:21:37.584Z,5.70
2023-03-08T04:24:09.317Z,6.80
2023-03-08T04:26:42.601Z,4.57
2023-03-08T04:29:17.532Z,5.30
2023-03-08T04:31:49.369Z,4.63
2023-03-08T04:34:24.117Z,8.57
2023-03-08T04:36:56.456Z,3.85
2023-03-08T04:39:28.537Z,5.85
2023-03-08T04:42:01.817Z,6.03
2023-03-08T04:44:36.004Z,5.13
2023-03-08T04:47:10.143Z,4.47
2023-03-08T04:49:48.105Z,5.10
2023-03-08T04:52:20.468Z,7.93
2023-03-08T04:54:55.250Z,5.38
2023-03-08T04:57:32.191Z,5.35
2023-03-08T05:00:06.034Z,5.97
2023-03-08T05:02:42.329Z,6.03
2023-03-08T05:05:18.748Z,4.00
2023-03-08T05:07:50.756Z,6.28
2023-03-08T05:10:22.506Z,9.13
2023-03-08T05:12:56.435Z,7.10
2023-03-08T05:15:28.162Z,4.90
2023-03-08T05:17:59.952Z,5.70
2023-03-08T05:20:32.285Z,3.22
2023-03-08T05:23:04.169Z,6.68
2023-03-08T05:25:42.570Z,5.30
2023-03-08T05:28:16.485Z,5.43
2023-03-08T05:30:50.956Z,3.17
2023-03-08T05:33:23.123Z,4.65
2023-03-08T05:35:54.963Z,5.13
2023-03-08T05:38:28.840Z,2.78
2023-03-08T05:41:02.215Z,7.85
2023-03-08T05:43:36.141Z,6.85
2023-03-08T05:46:11.931Z,4.82
2023-03-08T05:48:44.290Z,6.60
2023-03-08T05:51:18.218Z,11.55
2023-03-08T05:53:50.848Z,5.25
2023-03-08T05:56:24.754Z,5.78
2023-03-08T05:59:29.872Z,5.72
2023-03-08T06:02:05.744Z,6.10
2023-03-08T06:04:50.479Z,5.18
2023-03-08T06:07:25.905Z,2.25
2023-03-08T06:10:08.731Z,10.05
2023-03-08T06:12:41.496Z,5.03
2023-03-08T06:15:18.285Z,4.15
2023-03-08T06:17:52.008Z,5.50
2023-03-08T06:20:25.684Z,3.50
2023-03-08T06:22:57.496Z,5.88
2023-03-08T06:25:29.813Z,6.65
2023-03-08T06:28:01.649Z,5.05
2023-03-08T06:30:41.591Z,4.72
2023-03-08T06:33:13.746Z,6.20
2023-03-08T06:35:55.129Z,6.53
2023-03-08T06:38:29.520Z,6.40
2023-03-08T06:41:02.231Z,4.82
2023-03-08T06:43:35.751Z,7.97
2023-03-08T06:46:10.469Z,5.97
2023-03-08T06:48:42.625Z,4.88
2023-03-08T06:51:15.208Z,5.50
2023-03-08T06:53:49.417Z,4.85
2023-03-08T06:56:25.118Z,3.85
2023-03-08T06:58:56.907Z,7.30
2023-03-08T07:01:30.135Z,4.68
2023-03-08T07:04:01.849Z,5.28
2023-03-08T07:06:33.642Z,4.93
2023-03-08T07:09:05.373Z,9.80
2023-03-08T07:11:38.879Z,10.18
2023-03-08T07:14:10.550Z,5.78
2023-03-08T07:16:43.647Z,3.70
2023-03-08T07:19:15.367Z,4.63
2023-03-08T07:21:47.098Z,7.93
2023-03-08T07:24:18.897Z,4.60
2023-03-08T07:26:50.711Z,9.63
2023-03-08T07:29:22.391Z,4.22
2023-03-08T07:31:55.611Z,48.47
2023-03-08T07:34:27.345Z,60.15
2023-03-08T07:36:59.028Z,10.75
2023-03-08T07:39:30.763Z,11.65
2023-03-08T07:42:02.466Z,7.38
2023-03-08T07:44:34.180Z,8.73
2023-03-08T07:47:07.440Z,4.82
2023-03-08T07:49:39.260Z,6.78
2023-03-08T07:52:11.091Z,5.50
2023-03-08T07:54:43.968Z,7.25
2023-03-08T07:57:15.726Z,7.85
2023-03-08T07:59:47.489Z,4.22
2023-03-08T08:02:20.591Z,11.90
2023-03-08T08:04:52.366Z,14.00
2023-03-08T08:07:24.086Z,15.75
2023-03-08T08:09:55.786Z,7.63
2023-03-08T08:12:27.902Z,5.88
2023-03-08T08:15:00.024Z,9.55
2023-03-08T08:17:33.120Z,17.13
2023-03-08T08:20:08.086Z,10.48
2023-03-08T08:22:39.800Z,6.90
2023-03-08T08:25:11.543Z,8.80
2023-03-08T08:27:43.260Z,6.72
2023-03-08T08:30:15.088Z,5.10
2023-03-08T08:32:48.326Z,9.02
2023-03-08T08:35:20.075Z,7.72
2023-03-08T08:37:51.875Z,6.55
2023-03-08T08:40:23.586Z,4.30
2023-03-08T08:42:55.384Z,9.40
2023-03-08T08:45:27.134Z,8.00
2023-03-08T08:48:00.260Z,8.60
2023-03-08T08:50:32.009Z,6.60
2023-03-08T08:53:03.717Z,3.50
2023-03-08T08:55:35.506Z,4.53
2023-03-08T08:58:07.581Z,5.50
2023-03-08T09:00:39.300Z,3.78
2023-03-08T09:03:12.390Z,2.95
2023-03-08T09:05:45.024Z,9.77
2023-03-08T09:08:16.851Z,2.38
2023-03-08T09:10:48.573Z,7.57
2023-03-08T09:13:20.271Z,4.13
2023-03-08T09:15:52.059Z,5.03
2023-03-08T09:18:25.134Z,4.97
2023-03-08T09:20:56.842Z,2.35
2023-03-08T09:23:28.530Z,3.00
2023-03-08T09:26:02.460Z,1.80
2023-03-08T09:28:34.447Z,5.40
2023-03-08T09:31:09.931Z,5.95
2023-03-08T09:33:43.601Z,2.83
2023-03-08T09:36:16.493Z,4.95
2023-03-08T09:38:48.878Z,5.68
2023-03-08T09:41:29.890Z,4.25
2023-03-08T09:44:09.404Z,3.90
2023-03-08T09:46:46.178Z,3.92
2023-03-08T09:49:21.206Z,12.13
2023-03-08T09:51:55.904Z,9.82
2023-03-08T09:54:28.005Z,5.90
2023-03-08T09:57:02.992Z,20.33
2023-03-08T09:59:40.999Z,7.32
2023-03-08T10:02:18.057Z,8.27
2023-03-08T10:05:09.952Z,7.75
2023-03-08T10:07:48.379Z,14.60
2023-03-08T10:10:24.131Z,8.93
2023-03-08T10:13:01.875Z,7.82
2023-03-08T10:15:36.843Z,6.05
2023-03-08T10:18:12.517Z,3.78
2023-03-08T10:20:45.836Z,3.90
2023-03-08T10:23:18.735Z,5.90
2023-03-08T10:25:50.776Z,4.85
2023-03-08T10:28:23.585Z,5.75
2023-03-08T10:30:58.473Z,5.57
2023-03-08T10:33:32.560Z,2.13
2023-03-08T10:36:12.621Z,2.35
2023-03-08T10:38:56.998Z,1.85
2023-03-08T10:41:29.662Z,2.60
2023-03-08T10:44:01.415Z,2.80
2023-03-08T10:46:33.893Z,4.75
2023-03-08T10:49:10.076Z,3.13
2023-03-08T10:51:51.449Z,3.28
2023-03-08T10:54:23.273Z,3.88
2023-03-08T10:56:56.326Z,5.90
2023-03-08T10:59:32.478Z,4.15
2023-03-08T11:02:18.341Z,4.53
2023-03-08T11:04:50.999Z,3.85
2023-03-08T11:07:24.744Z,4.70
2023-03-08T11:10:15.250Z,10.27
2023-03-08T11:12:47.056Z,8.73
2023-03-08T11:15:19.758Z,8.63
2023-03-08T11:17:54.131Z,9.38
2023-03-08T11:20:27.825Z,4.38
2023-03-08T11:23:09.846Z,5.47
2023-03-08T11:25:44.472Z,1.85
2023-03-08T11:28:33.104Z,4.65
2023-03-08T11:31:16.677Z,2.97
2023-03-08T11:33:58.737Z,1.70
2023-03-08T11:36:32.913Z,3.60
2023-03-08T11:39:13.293Z,4.53
2023-03-08T11:41:50.039Z,3.60
2023-03-08T11:44:32.314Z,5.95
2023-03-08T11:47:19.242Z,5.65
2023-03-08T11:49:54.591Z,3.03
2023-03-08T11:52:29.802Z,2.97
2023-03-08T11:55:07.529Z,4.10
2023-03-08T11:57:43.064Z,3.22
2023-03-08T12:00:23.152Z,5.88
2023-03-08T12:02:57.226Z,3.22
2023-03-08T12:05:30.506Z,5.28
2023-03-08T12:08:03.171Z,6.10
2023-03-08T12:10:40.115Z,5.55
2023-03-08T12:13:16.823Z,5.45
2023-03-08T12:15:52.290Z,3.42
2023-03-08T12:18:28.602Z,3.65
2023-03-08T12:21:04.797Z,2.33
2023-03-08T12:23:41.222Z,5.00
2023-03-08T12:26:17.861Z,5.47
2023-03-08T12:28:53.356Z,6.80
2023-03-08T12:31:28.448Z,4.75
2023-03-08T12:34:00.752Z,4.28
2023-03-08T12:36:39.458Z,10.23
2023-03-08T12:39:26.463Z,8.60
2023-03-08T12:42:13.768Z,3.67
2023-03-08T12:44:45.534Z,7.72
2023-03-08T12:47:19.288Z,16.25
2023-03-08T12:49:52.594Z,11.60
2023-03-08T12:52:27.370Z,5.28
2023-03-08T12:54:59.997Z,9.88
2023-03-08T12:57:34.141Z,5.18
2023-03-08T13:00:10.660Z,10.55
2023-03-08T13:02:43.678Z,7.95
2023-03-08T13:05:21.083Z,27.67
2023-03-08T13:08:00.781Z,11.98
2023-03-08T13:10:33.589Z,34.00
2023-03-08T13:13:37.509Z,29.40
2023-03-08T13:16:21.462Z,8.82
2023-03-08T13:19:01.774Z,31.98
2023-03-08T13:21:35.738Z,24.67
2023-03-08T13:24:11.556Z,16.00
2023-03-08T13:26:50.779Z,16.20
2023-03-08T13:29:28.657Z,29.27
2023-03-08T13:32:06.250Z,16.15
2023-03-08T13:34:38.446Z,10.77
2023-03-08T13:37:20.242Z,4.95
2023-03-08T13:39:52.413Z,6.57
2023-03-08T13:42:27.436Z,7.13
2023-03-08T13:45:10.490Z,10.02
2023-03-08T13:47:43.736Z,7.38
2023-03-08T13:50:17.810Z,6.38
2023-03-08T13:52:49.578Z,6.35
2023-03-08T13:55:24.409Z,5.78
2023-03-08T13:57:56.380Z,4.93
2023-03-08T14:00:31.505Z,7.95
2023-03-08T14:03:06.623Z,7.00
2023-03-08T14:05:41.440Z,5.63
2023-03-08T14:08:18.876Z,8.48
2023-03-08T14:10:52.144Z,5.97
2023-03-08T14:13:25.708Z,5.45
2023-03-08T14:15:59.771Z,4.97
2023-03-08T14:18:33.374Z,3.83
2023-03-08T14:21:07.004Z,6.30
2023-03-08T14:23:41.244Z,8.70
2023-03-08T14:26:23.978Z,5.18
2023-03-08T14:29:20.045Z,7.07
2023-03-08T14:31:55.111Z,5.78
2023-03-08T14:34:28.164Z,27.27
2023-03-08T14:37:01.283Z,6.68
2023-03-08T14:39:34.246Z,4.75
2023-03-08T14:42:10.035Z,2.88
2023-03-08T14:44:41.755Z,4.47
2023-03-08T14:47:21.598Z,4.25
2023-03-08T14:49:57.260Z,9.68
2023-03-08T14:52:29.535Z,8.73
2023-03-08T14:55:01.234Z,9.43
2023-03-08T14:57:32.928Z,4.43
2023-03-08T15:00:07.707Z,9.45
2023-03-08T15:02:40.931Z,6.32
2023-03-08T15:05:14.235Z,6.55
2023-03-08T15:07:48.380Z,6.35
2023-03-08T15:10:26.049Z,8.52
2023-03-08T15:12:58.062Z,16.48
2023-03-08T15:15:29.763Z,5.30
2023-03-08T15:18:02.858Z,6.15
2023-03-08T15:20:34.730Z,2.67
2023-03-08T15:23:07.160Z,4.20
2023-03-08T15:25:38.978Z,3.95
2023-03-08T15:28:13.043Z,4.80
2023-03-08T15:30:45.006Z,6.10
2023-03-08T15:33:18.128Z,5.50
2023-03-08T15:35:50.155Z,4.25
2023-03-08T15:38:22.767Z,6.00
2023-03-08T15:40:54.495Z,6.10
2023-03-08T15:43:26.190Z,5.65
2023-03-08T15:45:57.905Z,12.07
2023-03-08T15:48:31.009Z,5.00
2023-03-08T15:51:02.768Z,4.30
2023-03-08T15:53:36.135Z,4.18
2023-03-08T15:56:08.229Z,9.75
2023-03-08T15:58:39.949Z,3.30
2023-03-08T16:01:12.106Z,3.03
2023-03-08T16:03:45.328Z,4.07
2023-03-08T16:06:17.641Z,3.92
2023-03-08T16:08:49.384Z,5.22
2023-03-08T16:11:22.429Z,3.38
2023-03-08T16:13:54.355Z,5.90
2023-03-08T16:16:42.288Z,6.80
2023-03-08T16:21:49.751Z,6.45
2023-03-08T16:24:21.443Z,5.78
2023-03-08T16:26:53.485Z,3.95
2023-03-08T16:29:25.790Z,7.25
2023-03-08T16:31:58.558Z,11.25
2023-03-08T16:34:30.582Z,8.55
2023-03-08T16:37:05.585Z,6.28
2023-03-08T16:39:37.336Z,4.57
2023-03-08T16:42:11.198Z,13.15
2023-03-08T16:44:48.176Z,4.70
2023-03-08T16:47:20.098Z,4.10
2023-03-08T16:49:52.060Z,3.28
2023-03-08T16:52:25.156Z,4.32
2023-03-08T16:54:57.207Z,3.63
2023-03-08T16:57:29.015Z,5.35
2023-03-08T17:00:00.730Z,3.00
2023-03-08T17:02:32.453Z,5.93
2023-03-08T17:05:04.923Z,4.53
2023-03-08T17:07:38.053Z,4.15
2023-03-08T17:10:10.373Z,5.47
2023-03-08T17:12:42.086Z,4.88
2023-03-08T17:15:13.775Z,4.43
2023-03-08T17:17:45.506Z,2.33
2023-03-08T17:20:17.256Z,3.03
2023-03-08T17:22:50.323Z,2.97
2023-03-08T17:25:22.086Z,5.45
2023-03-08T17:27:53.806Z,2.95
2023-03-08T17:30:25.508Z,3.42
2023-03-08T17:32:57.822Z,4.00
2023-03-08T17:35:29.701Z,3.78
2023-03-08T17:38:02.863Z,2.88
2023-03-08T17:40:34.616Z,3.67
2023-03-08T17:43:06.336Z,4.03
2023-03-08T17:45:38.140Z,4.68
2023-03-08T17:48:11.315Z,9.95
2023-03-08T17:50:43.052Z,4.45
2023-03-08T17:53:17.453Z,2.80
2023-03-08T17:55:49.273Z,2.22
2023-03-08T17:58:21.054Z,3.25
2023-03-08T18:00:52.775Z,2.97
2023-03-08T18:03:24.539Z,2.17
2023-03-08T18:05:56.263Z,3.30
2023-03-08T18:08:29.634Z,3.38
2023-03-08T18:11:01.391Z,2.85
2023-03-08T18:13:33.086Z,2.78
2023-03-08T18:16:05.765Z,3.00
2023-03-08T18:18:37.578Z,3.25
2023-03-08T18:21:13.720Z,5.10
2023-03-08T18:23:47.272Z,5.55
2023-03-08T18:26:19.330Z,7.90
2023-03-08T18:28:51.345Z,2.45
2023-03-08T18:31:26.042Z,1.30
2023-03-08T18:33:58.070Z,8.55
2023-03-08T18:36:30.003Z,2.63
2023-03-08T18:39:05.583Z,3.13
2023-03-08T18:41:37.292Z,6.03
2023-03-08T18:44:11.635Z,5.28
2023-03-08T18:46:43.920Z,3.13
2023-03-08T18:49:16.028Z,2.40
2023-03-08T18:51:48.108Z,6.55
2023-03-08T18:54:21.315Z,2.50
2023-03-08T18:56:54.528Z,3.55
2023-03-08T18:59:26.622Z,3.92
2023-03-08T19:01:58.394Z,6.75
2023-03-08T19:04:30.089Z,7.38
2023-03-08T19:07:01.929Z,3.72
2023-03-08T19:09:35.101Z,7.60
2023-03-08T19:12:06.913Z,5.00
2023-03-08T19:14:38.751Z,5.07
2023-03-08T19:17:10.569Z,1.98
2023-03-08T19:19:42.347Z,12.43
2023-03-08T19:22:15.275Z,3.47
2023-03-08T19:24:48.446Z,4.03
2023-03-08T19:27:21.465Z,5.70
2023-03-08T19:29:53.226Z,4.53
2023-03-08T19:32:24.919Z,7.68
2023-03-08T19:34:56.688Z,4.20
2023-03-08T19:37:28.444Z,3.75
2023-03-08T19:40:01.718Z,3.35
2023-03-08T19:42:33.526Z,8.90
2023-03-08T19:45:05.704Z,4.95
2023-03-08T19:47:37.387Z,5.82
2023-03-08T19:50:09.640Z,5.43
2023-03-08T19:52:41.402Z,7.05
2023-03-08T19:55:14.512Z,2.40
2023-03-08T19:57:46.256Z,4.15
2023-03-08T20:00:18.275Z,3.25
2023-03-08T20:02:50.005Z,3.53
2023-03-08T20:05:21.818Z,5.35
2023-03-08T20:07:53.580Z,5.43
2023-03-08T20:10:26.712Z,6.47
2023-03-08T20:12:58.538Z,4.45
2023-03-08T20:15:30.442Z,4.00
2023-03-08T20:18:02.167Z,3.08
2023-03-08T20:20:33.843Z,3.60
2023-03-08T20:23:05.614Z,4.65
2023-03-08T20:25:39.361Z,7.70
2023-03-08T20:28:11.408Z,16.15
2023-03-08T20:30:43.181Z,3.90
2023-03-08T20:33:15.246Z,9.50
2023-03-08T20:35:55.394Z,5.32
2023-03-08T20:41:01.686Z,2.55
2023-03-08T20:43:33.954Z,5.95
2023-03-08T20:46:06.383Z,7.20
2023-03-08T20:48:38.822Z,6.55
2023-03-08T20:51:11.384Z,6.47
2023-03-08T20:53:43.475Z,7.13
2023-03-08T20:56:17.504Z,6.63
2023-03-08T20:58:49.470Z,6.05
2023-03-08T21:01:23.233Z,3.70
2023-03-08T21:03:55.079Z,3.58
2023-03-08T21:06:27.699Z,4.35
2023-03-08T21:08:59.872Z,4.38
2023-03-08T21:11:33.033Z,2.92
2023-03-08T21:14:04.817Z,5.63
2023-03-08T21:16:36.677Z,4.47
2023-03-08T21:19:08.948Z,4.35
2023-03-08T21:21:41.525Z,2.03
2023-03-08T21:24:13.985Z,4.00
2023-03-08T21:26:47.116Z,3.03
2023-03-08T21:29:19.738Z,3.42
2023-03-08T21:31:52.541Z,4.35
2023-03-08T21:34:24.366Z,3.88
2023-03-08T21:36:56.130Z,7.32
2023-03-08T21:39:27.954Z,5.32
2023-03-08T21:42:01.021Z,6.45
2023-03-08T21:44:32.704Z,11.38
2023-03-08T21:47:04.534Z,9.18
2023-03-08T21:49:36.227Z,8.13
2023-03-08T21:52:08.032Z,5.45
2023-03-08T21:54:39.763Z,7.28
2023-03-08T21:57:12.847Z,5.38
2023-03-08T21:59:44.569Z,4.50
2023-03-08T22:02:16.272Z,6.70
2023-03-08T22:04:47.981Z,8.25
2023-03-08T22:07:19.650Z,8.70
2023-03-08T22:09:51.353Z,2.72
2023-03-08T22:12:24.462Z,3.42
2023-03-08T22:14:56.145Z,3.00
2023-03-08T22:17:27.826Z,6.15
2023-03-08T22:19:59.528Z,9.05
2023-03-08T22:22:31.548Z,10.32
2023-03-08T22:25:03.575Z,11.65
2023-03-08T22:27:36.678Z,5.82
2023-03-08T22:30:10.793Z,7.75
2023-03-08T22:32:42.526Z,5.45
2023-03-08T22:35:14.336Z,8.32
2023-03-08T22:37:46.609Z,7.07
2023-03-08T22:40:19.383Z,8.30
2023-03-08T22:42:52.474Z,8.02
2023-03-08T22:45:24.227Z,8.20
2023-03-08T22:47:55.914Z,8.45
2023-03-08T22:50:27.852Z,9.60
2023-03-08T22:52:59.553Z,7.75
2023-03-08T22:55:31.246Z,8.10
2023-03-08T22:58:04.303Z,7.95
2023-03-08T23:00:36.177Z,11.20
2023-03-08T23:03:07.896Z,7.53
2023-03-08T23:05:39.737Z,8.38
2023-03-08T23:08:11.460Z,7.32
2023-03-08T23:10:43.192Z,7.78
2023-03-08T23:13:31.175Z,8.55
2023-03-08T23:16:07.517Z,3.97
2023-03-08T23:18:39.592Z,7.95
2023-03-08T23:21:12.893Z,7.13
2023-03-08T23:23:44.669Z,5.57
2023-03-08T23:26:17.676Z,8.48
2023-03-08T23:28:51.054Z,6.00
2023-03-08T23:31:23.724Z,7.78
2023-03-08T23:33:56.931Z,3.85
2023-03-08T23:36:29.500Z,3.15
2023-03-08T23:39:02.705Z,4.35
2023-03-08T23:41:34.586Z,3.92
2023-03-08T23:44:08.131Z,3.80
2023-03-08T23:46:40.016Z,6.07
2023-03-08T23:49:11.698Z,2.63
2023-03-08T23:51:43.399Z,3.42
2023-03-08T23:54:15.130Z,3.00
2023-03-08T23:56:46.885Z,3.67
2023-03-08T23:59:21.142Z,3.83
